sensor_id;sensor_type;location;lat;lon;timestamp;temperature;humidity
70214;DHT22;60138;55.808;37.078;2023-08-21T00:01:27;16.48;68.07
70214;DHT22;60138;55.808;37.078;2023-08-21T00:03:52;16.34;68.78
70214;DHT22;60138;55.808;37.078;2023-08-21T00:06:18;16.16;68.39
70214;DHT22;60138;55.808;37.078;2023-08-21T00:08:44;16.03;68.17
70214;DHT22;60138;55.808;37.078;2023-08-21T00:11:13;15.92;69.41
70214;DHT22;60138;55.808;37.078;2023-08-21T00:13:41;15.86;68.90
70214;DHT22;60138;55.808;37.078;2023-08-21T00:16:07;15.75;69.51
70214;DHT22;60138;55.808;37.078;2023-08-21T00:18:33;15.70;69.68
70214;DHT22;60138;55.808;37.078;2023-08-21T00:20:59;15.69;69.74
70214;DHT22;60138;55.808;37.078;2023-08-21T00:23:24;15.63;69.94
70214;DHT22;60138;55.808;37.078;2023-08-21T00:25:50;15.57;70.61
70214;DHT22;60138;55.808;37.078;2023-08-21T00:28:16;15.52;70.13
70214;DHT22;60138;55.808;37.078;2023-08-21T00:30:42;15.44;70.53
70214;DHT22;60138;55.808;37.078;2023-08-21T00:33:10;15.39;70.56
70214;DHT22;60138;55.808;37.078;2023-08-21T00:35:36;15.31;71.03
70214;DHT22;60138;55.808;37.078;2023-08-21T00:38:02;15.25;71.35
70214;DHT22;60138;55.808;37.078;2023-08-21T00:40:28;15.22;71.35
70214;DHT22;60138;55.808;37.078;2023-08-21T00:42:53;15.17;71.68
70214;DHT22;60138;55.808;37.078;2023-08-21T00:45:20;15.15;71.86
70214;DHT22;60138;55.808;37.078;2023-08-21T00:47:45;15.13;71.86
70214;DHT22;60138;55.808;37.078;2023-08-21T00:50:11;15.08;71.96
70214;DHT22;60138;55.808;37.078;2023-08-21T00:52:40;15.02;72.13
70214;DHT22;60138;55.808;37.078;2023-08-21T00:55:08;15.00;71.84
70214;DHT22;60138;55.808;37.078;2023-08-21T00:57:36;15.00;71.82
70214;DHT22;60138;55.808;37.078;2023-08-21T01:00:03;14.99;72.33
70214;DHT22;60138;55.808;37.078;2023-08-21T01:02:32;15.00;71.13
70214;DHT22;60138;55.808;37.078;2023-08-21T01:04:58;14.98;72.04
70214;DHT22;60138;55.808;37.078;2023-08-21T01:07:24;14.98;72.30
70214;DHT22;60138;55.808;37.078;2023-08-21T01:09:58;15.00;72.69
70214;DHT22;60138;55.808;37.078;2023-08-21T01:12:35;14.97;72.48
70214;DHT22;60138;55.808;37.078;2023-08-21T01:15:06;14.94;72.66
70214;DHT22;60138;55.808;37.078;2023-08-21T01:17:39;14.88;72.83
70214;DHT22;60138;55.808;37.078;2023-08-21T01:20:07;14.85;71.94
70214;DHT22;60138;55.808;37.078;2023-08-21T01:22:38;14.80;72.56
70214;DHT22;60138;55.808;37.078;2023-08-21T01:25:07;14.75;72.30
70214;DHT22;60138;55.808;37.078;2023-08-21T01:27:34;14.71;72.76
70214;DHT22;60138;55.808;37.078;2023-08-21T01:30:01;14.67;73.17
70214;DHT22;60138;55.808;37.078;2023-08-21T01:32:32;14.66;72.83
70214;DHT22;60138;55.808;37.078;2023-08-21T01:34:59;14.63;73.04
70214;DHT22;60138;55.808;37.078;2023-08-21T01:37:26;14.58;73.06
70214;DHT22;60138;55.808;37.078;2023-08-21T01:39:52;14.57;73.24
70214;DHT22;60138;55.808;37.078;2023-08-21T01:42:19;14.58;73.43
70214;DHT22;60138;55.808;37.078;2023-08-21T01:44:45;14.60;73.80
70214;DHT22;60138;55.808;37.078;2023-08-21T01:47:10;14.69;73.71
70214;DHT22;60138;55.808;37.078;2023-08-21T01:49:36;14.82;73.39
70214;DHT22;60138;55.808;37.078;2023-08-21T01:52:02;14.94;73.00
70214;DHT22;60138;55.808;37.078;2023-08-21T01:54:28;15.02;73.40
70214;DHT22;60138;55.808;37.078;2023-08-21T01:56:54;15.13;73.44
70214;DHT22;60138;55.808;37.078;2023-08-21T01:59:20;15.19;73.09
70214;DHT22;60138;55.808;37.078;2023-08-21T02:01:45;15.22;73.06
70214;DHT22;60138;55.808;37.078;2023-08-21T02:04:11;15.19;72.84
70214;DHT22;60138;55.808;37.078;2023-08-21T02:06:37;15.15;72.20
70214;DHT22;60138;55.808;37.078;2023-08-21T02:09:03;15.12;72.38
70214;DHT22;60138;55.808;37.078;2023-08-21T02:11:28;15.09;72.48
70214;DHT22;60138;55.808;37.078;2023-08-21T02:13:54;15.00;72.46
70214;DHT22;60138;55.808;37.078;2023-08-21T02:16:20;14.88;72.83
70214;DHT22;60138;55.808;37.078;2023-08-21T02:18:46;14.74;72.74
70214;DHT22;60138;55.808;37.078;2023-08-21T02:21:12;14.65;73.16
70214;DHT22;60138;55.808;37.078;2023-08-21T02:23:37;14.56;72.15
70214;DHT22;60138;55.808;37.078;2023-08-21T02:26:03;14.47;72.99
70214;DHT22;60138;55.808;37.078;2023-08-21T02:28:29;14.39;73.23
70214;DHT22;60138;55.808;37.078;2023-08-21T02:30:57;14.34;73.64
70214;DHT22;60138;55.808;37.078;2023-08-21T02:33:28;14.29;73.45
70214;DHT22;60138;55.808;37.078;2023-08-21T02:36:27;14.23;73.30
70214;DHT22;60138;55.808;37.078;2023-08-21T02:38:55;14.18;73.55
70214;DHT22;60138;55.808;37.078;2023-08-21T02:41:26;14.14;73.89
70214;DHT22;60138;55.808;37.078;2023-08-21T02:43:54;14.13;73.99
70214;DHT22;60138;55.808;37.078;2023-08-21T02:50:39;14.06;73.88
70214;DHT22;60138;55.808;37.078;2023-08-21T03:04:41;13.93;74.07
70214;DHT22;60138;55.808;37.078;2023-08-21T03:11:19;13.91;73.80
70214;DHT22;60138;55.808;37.078;2023-08-21T03:18:02;13.92;74.47
70214;DHT22;60138;55.808;37.078;2023-08-21T03:21:10;13.95;74.22
70214;DHT22;60138;55.808;37.078;2023-08-21T03:37:12;14.01;73.70
70214;DHT22;60138;55.808;37.078;2023-08-21T03:39:37;14.05;74.06
70214;DHT22;60138;55.808;37.078;2023-08-21T03:42:06;14.04;73.81
70214;DHT22;60138;55.808;37.078;2023-08-21T03:44:32;14.09;73.77
70214;DHT22;60138;55.808;37.078;2023-08-21T03:47:01;14.13;74.09
70214;DHT22;60138;55.808;37.078;2023-08-21T03:49:33;14.14;73.76
70214;DHT22;60138;55.808;37.078;2023-08-21T03:52:00;14.15;74.05
70214;DHT22;60138;55.808;37.078;2023-08-21T03:54:25;14.18;72.88
70214;DHT22;60138;55.808;37.078;2023-08-21T03:56:53;14.19;73.66
70214;DHT22;60138;55.808;37.078;2023-08-21T03:59:21;14.21;73.40
70214;DHT22;60138;55.808;37.078;2023-08-21T04:01:47;14.23;73.20
70214;DHT22;60138;55.808;37.078;2023-08-21T04:04:13;14.25;73.32
70214;DHT22;60138;55.808;37.078;2023-08-21T04:06:39;14.29;72.96
70214;DHT22;60138;55.808;37.078;2023-08-21T04:09:04;14.32;73.21
70214;DHT22;60138;55.808;37.078;2023-08-21T04:11:32;14.36;72.72
70214;DHT22;60138;55.808;37.078;2023-08-21T04:13:58;14.39;73.33
70214;DHT22;60138;55.808;37.078;2023-08-21T04:16:23;14.45;73.26
70214;DHT22;60138;55.808;37.078;2023-08-21T04:18:49;14.51;73.22
70214;DHT22;60138;55.808;37.078;2023-08-21T04:21:15;14.59;72.52
70214;DHT22;60138;55.808;37.078;2023-08-21T04:23:41;14.67;72.61
70214;DHT22;60138;55.808;37.078;2023-08-21T04:26:06;14.74;72.29
70214;DHT22;60138;55.808;37.078;2023-08-21T04:28:33;14.82;72.42
70214;DHT22;60138;55.808;37.078;2023-08-21T04:31:00;14.91;72.06
70214;DHT22;60138;55.808;37.078;2023-08-21T04:33:28;15.01;71.92
70214;DHT22;60138;55.808;37.078;2023-08-21T04:35:54;15.10;71.59
70214;DHT22;60138;55.808;37.078;2023-08-21T04:38:20;15.22;71.59
70214;DHT22;60138;55.808;37.078;2023-08-21T04:40:46;15.34;71.38
70214;DHT22;60138;55.808;37.078;2023-08-21T04:43:13;15.46;70.94
70214;DHT22;60138;55.808;37.078;2023-08-21T04:45:50;15.54;70.43
70214;DHT22;60138;55.808;37.078;2023-08-21T04:48:16;15.65;70.20
70214;DHT22;60138;55.808;37.078;2023-08-21T04:50:45;15.66;69.97
70214;DHT22;60138;55.808;37.078;2023-08-21T04:53:14;15.62;69.71
70214;DHT22;60138;55.808;37.078;2023-08-21T04:55:40;15.57;69.77
70214;DHT22;60138;55.808;37.078;2023-08-21T04:58:08;15.55;69.55
70214;DHT22;60138;55.808;37.078;2023-08-21T05:00:34;15.54;69.52
70214;DHT22;60138;55.808;37.078;2023-08-21T05:03:00;15.51;69.26
70214;DHT22;60138;55.808;37.078;2023-08-21T05:05:26;15.53;69.45
70214;DHT22;60138;55.808;37.078;2023-08-21T05:07:53;15.54;69.69
70214;DHT22;60138;55.808;37.078;2023-08-21T05:10:24;15.57;69.85
70214;DHT22;60138;55.808;37.078;2023-08-21T05:12:50;15.59;69.78
70214;DHT22;60138;55.808;37.078;2023-08-21T05:15:17;15.62;69.55
70214;DHT22;60138;55.808;37.078;2023-08-21T05:17:44;15.67;69.90
70214;DHT22;60138;55.808;37.078;2023-08-21T05:20:10;15.71;69.66
70214;DHT22;60138;55.808;37.078;2023-08-21T05:22:37;15.72;69.37
70214;DHT22;60138;55.808;37.078;2023-08-21T05:25:03;15.76;69.13
70214;DHT22;60138;55.808;37.078;2023-08-21T05:27:31;15.80;69.21
70214;DHT22;60138;55.808;37.078;2023-08-21T05:29:56;15.83;69.24
70214;DHT22;60138;55.808;37.078;2023-08-21T05:32:25;15.86;69.13
70214;DHT22;60138;55.808;37.078;2023-08-21T05:34:53;15.91;69.25
70214;DHT22;60138;55.808;37.078;2023-08-21T05:37:19;15.99;68.80
70214;DHT22;60138;55.808;37.078;2023-08-21T05:39:45;16.03;68.49
70214;DHT22;60138;55.808;37.078;2023-08-21T05:42:12;16.06;67.47
70214;DHT22;60138;55.808;37.078;2023-08-21T05:44:37;16.08;68.18
70214;DHT22;60138;55.808;37.078;2023-08-21T05:47:03;16.14;68.18
70214;DHT22;60138;55.808;37.078;2023-08-21T05:49:29;16.18;68.01
70214;DHT22;60138;55.808;37.078;2023-08-21T05:51:56;16.24;67.93
70214;DHT22;60138;55.808;37.078;2023-08-21T05:54:24;16.29;67.59
70214;DHT22;60138;55.808;37.078;2023-08-21T05:56:50;16.33;67.19
70214;DHT22;60138;55.808;37.078;2023-08-21T05:59:26;16.32;67.27
70214;DHT22;60138;55.808;37.078;2023-08-21T06:01:52;16.35;67.30
70214;DHT22;60138;55.808;37.078;2023-08-21T06:04:18;16.39;67.18
70214;DHT22;60138;55.808;37.078;2023-08-21T06:06:51;16.42;67.39
70214;DHT22;60138;55.808;37.078;2023-08-21T06:09:17;16.48;67.39
70214;DHT22;60138;55.808;37.078;2023-08-21T06:11:43;16.52;67.18
70214;DHT22;60138;55.808;37.078;2023-08-21T06:14:09;16.56;67.05
70214;DHT22;60138;55.808;37.078;2023-08-21T06:16:35;16.59;66.44
70214;DHT22;60138;55.808;37.078;2023-08-21T06:19:01;16.63;66.54
70214;DHT22;60138;55.808;37.078;2023-08-21T06:21:26;16.74;66.26
70214;DHT22;60138;55.808;37.078;2023-08-21T06:23:52;16.82;65.85
70214;DHT22;60138;55.808;37.078;2023-08-21T06:26:18;16.89;66.23
70214;DHT22;60138;55.808;37.078;2023-08-21T06:28:44;17.02;66.24
70214;DHT22;60138;55.808;37.078;2023-08-21T06:31:09;17.21;65.60
70214;DHT22;60138;55.808;37.078;2023-08-21T06:33:36;17.36;64.51
70214;DHT22;60138;55.808;37.078;2023-08-21T06:36:04;17.45;64.88
70214;DHT22;60138;55.808;37.078;2023-08-21T06:38:31;17.59;63.78
70214;DHT22;60138;55.808;37.078;2023-08-21T06:40:56;17.84;63.58
70214;DHT22;60138;55.808;37.078;2023-08-21T06:43:22;18.09;63.37
70214;DHT22;60138;55.808;37.078;2023-08-21T06:45:50;18.30;62.66
70214;DHT22;60138;55.808;37.078;2023-08-21T06:48:16;18.47;61.70
70214;DHT22;60138;55.808;37.078;2023-08-21T06:50:41;18.51;61.19
70214;DHT22;60138;55.808;37.078;2023-08-21T06:53:07;18.47;61.34
70214;DHT22;60138;55.808;37.078;2023-08-21T06:55:32;18.52;61.91
70214;DHT22;60138;55.808;37.078;2023-08-21T06:57:58;18.59;61.44
70214;DHT22;60138;55.808;37.078;2023-08-21T07:00:24;18.65;61.70
70214;DHT22;60138;55.808;37.078;2023-08-21T07:02:50;18.68;61.37
70214;DHT22;60138;55.808;37.078;2023-08-21T07:05:16;18.67;58.13
70214;DHT22;60138;55.808;37.078;2023-08-21T07:07:41;18.74;59.38
70214;DHT22;60138;55.808;37.078;2023-08-21T07:10:07;18.86;60.14
70214;DHT22;60138;55.808;37.078;2023-08-21T07:12:33;18.97;60.09
70214;DHT22;60138;55.808;37.078;2023-08-21T07:15:01;19.13;60.38
70214;DHT22;60138;55.808;37.078;2023-08-21T07:17:30;19.37;60.68
70214;DHT22;60138;55.808;37.078;2023-08-21T07:19:56;19.43;59.52
70214;DHT22;60138;55.808;37.078;2023-08-21T07:22:24;19.47;61.09
70214;DHT22;60138;55.808;37.078;2023-08-21T07:24:50;19.43;58.68
70214;DHT22;60138;55.808;37.078;2023-08-21T07:27:16;19.40;59.28
70214;DHT22;60138;55.808;37.078;2023-08-21T07:29:41;19.43;59.90
70214;DHT22;60138;55.808;37.078;2023-08-21T07:32:07;19.51;58.02
70214;DHT22;60138;55.808;37.078;2023-08-21T07:34:33;19.61;58.80
70214;DHT22;60138;55.808;37.078;2023-08-21T07:36:58;19.69;57.07
70214;DHT22;60138;55.808;37.078;2023-08-21T07:39:24;19.79;59.02
70214;DHT22;60138;55.808;37.078;2023-08-21T07:41:51;19.91;55.38
70214;DHT22;60138;55.808;37.078;2023-08-21T07:44:17;20.05;57.62
70214;DHT22;60138;55.808;37.078;2023-08-21T07:46:43;20.07;55.68
70214;DHT22;60138;55.808;37.078;2023-08-21T07:49:08;20.13;56.19
70214;DHT22;60138;55.808;37.078;2023-08-21T07:51:35;20.21;55.95
70214;DHT22;60138;55.808;37.078;2023-08-21T07:54:01;20.45;56.44
70214;DHT22;60138;55.808;37.078;2023-08-21T07:56:27;20.56;55.34
70214;DHT22;60138;55.808;37.078;2023-08-21T07:58:53;20.57;54.14
70214;DHT22;60138;55.808;37.078;2023-08-21T08:01:18;20.47;55.21
70214;DHT22;60138;55.808;37.078;2023-08-21T08:03:44;20.37;55.75
70214;DHT22;60138;55.808;37.078;2023-08-21T08:06:10;20.36;56.16
70214;DHT22;60138;55.808;37.078;2023-08-21T08:08:35;20.41;56.97
70214;DHT22;60138;55.808;37.078;2023-08-21T08:11:02;20.41;54.14
70214;DHT22;60138;55.808;37.078;2023-08-21T08:13:28;20.46;54.00
70214;DHT22;60138;55.808;37.078;2023-08-21T08:15:54;20.57;55.38
70214;DHT22;60138;55.808;37.078;2023-08-21T08:18:20;20.71;54.82
70214;DHT22;60138;55.808;37.078;2023-08-21T08:20:46;20.87;55.22
70214;DHT22;60138;55.808;37.078;2023-08-21T08:23:12;21.00;54.33
70214;DHT22;60138;55.808;37.078;2023-08-21T08:30:13;20.85;55.20
70214;DHT22;60138;55.808;37.078;2023-08-21T08:35:40;20.26;54.89
70214;DHT22;60138;55.808;37.078;2023-08-21T08:38:05;20.05;54.57
70214;DHT22;60138;55.808;37.078;2023-08-21T08:40:32;19.91;55.69
70214;DHT22;60138;55.808;37.078;2023-08-21T08:42:58;19.85;55.26
70214;DHT22;60138;55.808;37.078;2023-08-21T08:45:31;19.79;54.87
70214;DHT22;60138;55.808;37.078;2023-08-21T08:48:00;19.76;54.35
70214;DHT22;60138;55.808;37.078;2023-08-21T08:50:29;19.70;52.07
70214;DHT22;60138;55.808;37.078;2023-08-21T08:52:55;19.70;55.28
70214;DHT22;60138;55.808;37.078;2023-08-21T08:55:22;19.76;53.81
70214;DHT22;60138;55.808;37.078;2023-08-21T08:57:48;19.76;54.79
70214;DHT22;60138;55.808;37.078;2023-08-21T09:00:14;19.73;56.25
70214;DHT22;60138;55.808;37.078;2023-08-21T09:02:40;19.73;56.40
70214;DHT22;60138;55.808;37.078;2023-08-21T09:05:06;19.84;54.29
70214;DHT22;60138;55.808;37.078;2023-08-21T09:07:32;19.98;54.84
70214;DHT22;60138;55.808;37.078;2023-08-21T09:09:58;20.03;55.74
70214;DHT22;60138;55.808;37.078;2023-08-21T09:12:26;20.03;55.23
70214;DHT22;60138;55.808;37.078;2023-08-21T09:14:51;20.01;54.82
70214;DHT22;60138;55.808;37.078;2023-08-21T09:17:17;20.01;54.23
70214;DHT22;60138;55.808;37.078;2023-08-21T09:19:43;20.09;54.36
70214;DHT22;60138;55.808;37.078;2023-08-21T09:22:10;20.21;51.63
70214;DHT22;60138;55.808;37.078;2023-08-21T09:24:37;20.42;53.07
70214;DHT22;60138;55.808;37.078;2023-08-21T09:27:04;20.57;53.38
70214;DHT22;60138;55.808;37.078;2023-08-21T09:29:38;20.71;53.24
70214;DHT22;60138;55.808;37.078;2023-08-21T09:32:04;20.73;53.55
70214;DHT22;60138;55.808;37.078;2023-08-21T09:34:34;20.72;53.88
70214;DHT22;60138;55.808;37.078;2023-08-21T09:37:00;20.70;51.75
70214;DHT22;60138;55.808;37.078;2023-08-21T09:39:32;20.64;50.38
70214;DHT22;60138;55.808;37.078;2023-08-21T09:41:58;20.63;49.05
70214;DHT22;60138;55.808;37.078;2023-08-21T09:44:24;20.64;50.77
70214;DHT22;60138;55.808;37.078;2023-08-21T09:46:50;20.64;53.16
70214;DHT22;60138;55.808;37.078;2023-08-21T09:49:17;20.60;53.07
70214;DHT22;60138;55.808;37.078;2023-08-21T09:51:43;20.60;55.05
70214;DHT22;60138;55.808;37.078;2023-08-21T09:54:28;20.58;53.89
70214;DHT22;60138;55.808;37.078;2023-08-21T09:56:54;20.49;54.69
70214;DHT22;60138;55.808;37.078;2023-08-21T09:59:21;20.44;54.26
70214;DHT22;60138;55.808;37.078;2023-08-21T10:01:49;20.43;54.40
70214;DHT22;60138;55.808;37.078;2023-08-21T10:04:17;20.43;55.02
70214;DHT22;60138;55.808;37.078;2023-08-21T10:06:44;20.47;52.36
70214;DHT22;60138;55.808;37.078;2023-08-21T10:09:11;20.50;52.48
70214;DHT22;60138;55.808;37.078;2023-08-21T10:11:37;20.50;49.10
70214;DHT22;60138;55.808;37.078;2023-08-21T10:14:03;20.61;50.83
70214;DHT22;60138;55.808;37.078;2023-08-21T10:16:29;20.70;50.47
70214;DHT22;60138;55.808;37.078;2023-08-21T10:18:55;20.85;53.56
70214;DHT22;60138;55.808;37.078;2023-08-21T10:21:22;20.93;52.71
70214;DHT22;60138;55.808;37.078;2023-08-21T10:23:50;21.08;51.75
70214;DHT22;60138;55.808;37.078;2023-08-21T10:26:19;21.23;51.75
70214;DHT22;60138;55.808;37.078;2023-08-21T10:29:01;21.42;51.71
70214;DHT22;60138;55.808;37.078;2023-08-21T10:31:29;21.51;50.15
70214;DHT22;60138;55.808;37.078;2023-08-21T10:33:55;21.62;51.91
70214;DHT22;60138;55.808;37.078;2023-08-21T10:39:03;21.51;51.65
70214;DHT22;60138;55.808;37.078;2023-08-21T10:41:29;21.31;51.50
70214;DHT22;60138;55.808;37.078;2023-08-21T10:43:55;21.09;51.98
70214;DHT22;60138;55.808;37.078;2023-08-21T10:46:23;20.92;51.83
70214;DHT22;60138;55.808;37.078;2023-08-21T10:48:49;20.87;52.38
70214;DHT22;60138;55.808;37.078;2023-08-21T10:51:17;20.86;51.43
70214;DHT22;60138;55.808;37.078;2023-08-21T10:53:42;20.90;52.91
70214;DHT22;60138;55.808;37.078;2023-08-21T10:56:08;20.96;50.57
70214;DHT22;60138;55.808;37.078;2023-08-21T10:58:44;21.00;51.44
70214;DHT22;60138;55.808;37.078;2023-08-21T11:01:10;21.00;52.22
70214;DHT22;60138;55.808;37.078;2023-08-21T11:03:40;21.06;52.51
70214;DHT22;60138;55.808;37.078;2023-08-21T11:06:10;21.15;46.60
70214;DHT22;60138;55.808;37.078;2023-08-21T11:08:36;21.15;50.59
70214;DHT22;60138;55.808;37.078;2023-08-21T11:11:05;21.24;51.19
70214;DHT22;60138;55.808;37.078;2023-08-21T11:13:31;21.44;50.76
70214;DHT22;60138;55.808;37.078;2023-08-21T11:16:05;21.52;50.23
70214;DHT22;60138;55.808;37.078;2023-08-21T11:18:36;21.65;49.93
70214;DHT22;60138;55.808;37.078;2023-08-21T11:21:08;21.84;48.86
70214;DHT22;60138;55.808;37.078;2023-08-21T11:23:39;22.10;48.60
70214;DHT22;60138;55.808;37.078;2023-08-21T11:26:06;22.49;49.48
70214;DHT22;60138;55.808;37.078;2023-08-21T11:28:35;22.84;43.16
70214;DHT22;60138;55.808;37.078;2023-08-21T11:31:02;23.02;47.28
70214;DHT22;60138;55.808;37.078;2023-08-21T11:33:28;23.08;46.63
70214;DHT22;60138;55.808;37.078;2023-08-21T11:35:55;22.86;49.95
70214;DHT22;60138;55.808;37.078;2023-08-21T11:38:22;22.66;49.57
70214;DHT22;60138;55.808;37.078;2023-08-21T11:40:53;22.48;49.04
70214;DHT22;60138;55.808;37.078;2023-08-21T11:43:20;22.46;50.86
70214;DHT22;60138;55.808;37.078;2023-08-21T11:45:46;22.95;50.56
70214;DHT22;60138;55.808;37.078;2023-08-21T11:48:12;25.14;43.74
70214;DHT22;60138;55.808;37.078;2023-08-21T11:50:39;26.63;43.89
70214;DHT22;60138;55.808;37.078;2023-08-21T11:53:05;27.93;43.26
70214;DHT22;60138;55.808;37.078;2023-08-21T11:55:30;29.09;42.12
70214;DHT22;60138;55.808;37.078;2023-08-21T11:57:56;30.30;41.12
70214;DHT22;60138;55.808;37.078;2023-08-21T12:00:29;31.25;39.40
70214;DHT22;60138;55.808;37.078;2023-08-21T12:02:59;32.35;37.66
70214;DHT22;60138;55.808;37.078;2023-08-21T12:05:27;33.19;38.13
70214;DHT22;60138;55.808;37.078;2023-08-21T12:07:54;33.75;36.19
70214;DHT22;60138;55.808;37.078;2023-08-21T12:10:28;34.64;34.68
70214;DHT22;60138;55.808;37.078;2023-08-21T12:12:54;33.53;34.98
70214;DHT22;60138;55.808;37.078;2023-08-21T12:15:20;31.70;39.29
70214;DHT22;60138;55.808;37.078;2023-08-21T12:17:46;29.98;39.50
70214;DHT22;60138;55.808;37.078;2023-08-21T12:20:12;28.88;40.96
70214;DHT22;60138;55.808;37.078;2023-08-21T12:22:38;28.59;42.06
70214;DHT22;60138;55.808;37.078;2023-08-21T12:25:05;29.85;40.46
70214;DHT22;60138;55.808;37.078;2023-08-21T12:27:31;31.02;36.74
70214;DHT22;60138;55.808;37.078;2023-08-21T12:29:57;32.50;37.04
70214;DHT22;60138;55.808;37.078;2023-08-21T12:32:23;33.28;37.66
70214;DHT22;60138;55.808;37.078;2023-08-21T12:34:48;34.20;39.59
70214;DHT22;60138;55.808;37.078;2023-08-21T12:37:14;34.94;36.73
70214;DHT22;60138;55.808;37.078;2023-08-21T12:39:40;35.85;34.98
70214;DHT22;60138;55.808;37.078;2023-08-21T12:42:06;36.19;34.28
70214;DHT22;60138;55.808;37.078;2023-08-21T12:44:32;36.23;34.24
70214;DHT22;60138;55.808;37.078;2023-08-21T12:46:57;36.41;34.03
70214;DHT22;60138;55.808;37.078;2023-08-21T12:49:23;37.14;25.17
70214;DHT22;60138;55.808;37.078;2023-08-21T12:51:49;37.01;24.94
70214;DHT22;60138;55.808;37.078;2023-08-21T12:54:14;37.23;31.78
70214;DHT22;60138;55.808;37.078;2023-08-21T12:56:44;37.52;15.99
70214;DHT22;60138;55.808;37.078;2023-08-21T12:59:09;36.61;32.14
70214;DHT22;60138;55.808;37.078;2023-08-21T13:01:35;35.36;28.42
70214;DHT22;60138;55.808;37.078;2023-08-21T13:04:01;33.65;32.86
70214;DHT22;60138;55.808;37.078;2023-08-21T13:06:27;33.02;31.97
70214;DHT22;60138;55.808;37.078;2023-08-21T13:08:53;32.19;28.55
70214;DHT22;60138;55.808;37.078;2023-08-21T13:11:19;33.06;33.02
70214;DHT22;60138;55.808;37.078;2023-08-21T13:13:44;34.22;33.98
70214;DHT22;60138;55.808;37.078;2023-08-21T13:16:10;34.93;33.06
70214;DHT22;60138;55.808;37.078;2023-08-21T13:18:36;35.78;32.19
70214;DHT22;60138;55.808;37.078;2023-08-21T13:21:01;36.45;30.65
70214;DHT22;60138;55.808;37.078;2023-08-21T13:23:28;36.83;33.40
70214;DHT22;60138;55.808;37.078;2023-08-21T13:25:55;36.75;19.97
70214;DHT22;60138;55.808;37.078;2023-08-21T13:28:20;36.39;29.41
70214;DHT22;60138;55.808;37.078;2023-08-21T13:30:46;36.07;22.33
70214;DHT22;60138;55.808;37.078;2023-08-21T13:33:14;36.01;28.80
70214;DHT22;60138;55.808;37.078;2023-08-21T13:35:40;36.63;27.25
70214;DHT22;60138;55.808;37.078;2023-08-21T13:38:06;36.93;29.24
70214;DHT22;60138;55.808;37.078;2023-08-21T13:40:32;37.82;32.54
70214;DHT22;60138;55.808;37.078;2023-08-21T13:42:57;38.26;29.19
70214;DHT22;60138;55.808;37.078;2023-08-21T13:45:23;39.05;29.39
70214;DHT22;60138;55.808;37.078;2023-08-21T13:47:49;39.39;27.93
70214;DHT22;60138;55.808;37.078;2023-08-21T13:50:17;38.97;25.71
70214;DHT22;60138;55.808;37.078;2023-08-21T13:52:43;38.76;25.47
70214;DHT22;60138;55.808;37.078;2023-08-21T13:55:10;38.35;28.97
70214;DHT22;60138;55.808;37.078;2023-08-21T13:57:36;38.12;27.76
70214;DHT22;60138;55.808;37.078;2023-08-21T14:00:05;36.93;27.34
70214;DHT22;60138;55.808;37.078;2023-08-21T14:02:31;35.73;28.64
70214;DHT22;60138;55.808;37.078;2023-08-21T14:04:59;34.97;30.90
70214;DHT22;60138;55.808;37.078;2023-08-21T14:07:25;34.75;29.39
70214;DHT22;60138;55.808;37.078;2023-08-21T14:09:51;34.05;30.36
70214;DHT22;60138;55.808;37.078;2023-08-21T14:12:17;33.42;29.32
70214;DHT22;60138;55.808;37.078;2023-08-21T14:14:42;32.90;24.08
70214;DHT22;60138;55.808;37.078;2023-08-21T14:17:08;32.00;23.22
70214;DHT22;60138;55.808;37.078;2023-08-21T14:19:34;31.06;26.96
70214;DHT22;60138;55.808;37.078;2023-08-21T14:22:00;30.08;24.06
70214;DHT22;60138;55.808;37.078;2023-08-21T14:24:26;29.34;26.75
70214;DHT22;60138;55.808;37.078;2023-08-21T14:26:52;28.91;27.68
70214;DHT22;60138;55.808;37.078;2023-08-21T14:29:18;28.88;31.13
70214;DHT22;60138;55.808;37.078;2023-08-21T14:31:43;28.91;31.88
70214;DHT22;60138;55.808;37.078;2023-08-21T14:34:09;28.69;26.39
70214;DHT22;60138;55.808;37.078;2023-08-21T14:36:35;29.01;31.36
70214;DHT22;60138;55.808;37.078;2023-08-21T14:39:00;29.08;27.29
70214;DHT22;60138;55.808;37.078;2023-08-21T14:41:26;29.35;29.77
70214;DHT22;60138;55.808;37.078;2023-08-21T14:43:52;29.09;27.52
70214;DHT22;60138;55.808;37.078;2023-08-21T14:46:17;28.68;30.46
70214;DHT22;60138;55.808;37.078;2023-08-21T14:48:43;28.64;31.91
70214;DHT22;60138;55.808;37.078;2023-08-21T14:51:09;28.67;31.96
70214;DHT22;60138;55.808;37.078;2023-08-21T14:53:35;28.70;32.70
70214;DHT22;60138;55.808;37.078;2023-08-21T14:56:00;28.74;31.86
70214;DHT22;60138;55.808;37.078;2023-08-21T14:58:26;28.77;27.81
70214;DHT22;60138;55.808;37.078;2023-08-21T15:00:54;28.40;27.33
70214;DHT22;60138;55.808;37.078;2023-08-21T15:03:20;27.95;26.55
70214;DHT22;60138;55.808;37.078;2023-08-21T15:05:46;27.56;28.26
70214;DHT22;60138;55.808;37.078;2023-08-21T15:08:11;27.23;29.39
70214;DHT22;60138;55.808;37.078;2023-08-21T15:10:37;26.73;26.17
70214;DHT22;60138;55.808;37.078;2023-08-21T15:13:03;26.50;31.26
70214;DHT22;60138;55.808;37.078;2023-08-21T15:15:29;26.31;31.48
70214;DHT22;60138;55.808;37.078;2023-08-21T15:17:55;26.07;30.61
70214;DHT22;60138;55.808;37.078;2023-08-21T15:20:20;25.88;31.90
70214;DHT22;60138;55.808;37.078;2023-08-21T15:22:46;25.59;30.99
70214;DHT22;60138;55.808;37.078;2023-08-21T15:25:12;25.33;32.99
70214;DHT22;60138;55.808;37.078;2023-08-21T15:27:38;25.03;32.98
70214;DHT22;60138;55.808;37.078;2023-08-21T15:30:06;24.88;33.95
70214;DHT22;60138;55.808;37.078;2023-08-21T15:32:34;24.74;34.06
70214;DHT22;60138;55.808;37.078;2023-08-21T15:35:00;24.58;34.43
70214;DHT22;60138;55.808;37.078;2023-08-21T15:37:25;24.46;35.49
70214;DHT22;60138;55.808;37.078;2023-08-21T15:39:51;24.32;35.28
70214;DHT22;60138;55.808;37.078;2023-08-21T15:42:17;24.17;35.24
70214;DHT22;60138;55.808;37.078;2023-08-21T15:44:42;24.02;36.00
70214;DHT22;60138;55.808;37.078;2023-08-21T15:47:08;23.98;36.45
70214;DHT22;60138;55.808;37.078;2023-08-21T15:49:34;23.85;37.01
70214;DHT22;60138;55.808;37.078;2023-08-21T15:52:00;23.80;37.87
70214;DHT22;60138;55.808;37.078;2023-08-21T15:54:32;23.72;37.76
70214;DHT22;60138;55.808;37.078;2023-08-21T15:57:00;23.61;37.50
70214;DHT22;60138;55.808;37.078;2023-08-21T15:59:25;23.44;37.47
70214;DHT22;60138;55.808;37.078;2023-08-21T16:01:51;23.30;37.74